createdAt,value
2018-07-08T00:00:31.849Z,23.20
2018-07-08T00:01:34.103Z,23.30
2018-07-08T00:02:36.369Z,23.20
2018-07-08T00:03:38.621Z,23.20
2018-07-08T00:04:40.850Z,23.20
2018-07-08T00:05:43.190Z,23.20
2018-07-08T00:06:45.416Z,23.10
2018-07-08T00:07:47.638Z,23.10
2018-07-08T00:08:49.849Z,23.10
2018-07-08T00:09:52.091Z,23.10
2018-07-08T00:10:57.365Z,23.10
2018-07-08T00:11:59.599Z,23.10
2018-07-08T00:13:01.834Z,23.10
2018-07-08T00:14:04.042Z,23.10
2018-07-08T00:15:06.303Z,23.10
2018-07-08T00:16:08.555Z,23.10
2018-07-08T00:17:10.783Z,23.00
2018-07-08T00:18:13.063Z,23.00
2018-07-08T00:19:15.293Z,23.00
2018-07-08T00:20:18.018Z,23.00
2018-07-08T00:21:20.312Z,23.00
2018-07-08T00:22:22.576Z,22.90
2018-07-08T00:23:24.890Z,22.90
2018-07-08T00:24:27.128Z,22.90
2018-07-08T00:25:29.405Z,22.90
2018-07-08T00:26:31.652Z,22.80
2018-07-08T00:27:34.010Z,22.80
2018-07-08T00:28:36.241Z,22.80
2018-07-08T00:29:38.504Z,22.80
2018-07-08T00:30:40.741Z,22.80
2018-07-08T00:31:43.011Z,22.80
2018-07-08T00:32:45.233Z,22.80
2018-07-08T00:33:47.448Z,22.80
2018-07-08T00:34:49.670Z,22.80
2018-07-08T00:35:51.996Z,22.80
2018-07-08T00:36:54.239Z,22.70
2018-07-08T00:37:56.512Z,22.70
2018-07-08T00:38:58.762Z,22.70
2018-07-08T00:41:03.250Z,22.70
2018-07-08T00:42:05.682Z,22.80
2018-07-08T00:43:07.935Z,22.70
2018-07-08T00:44:10.257Z,22.70
2018-07-08T00:46:14.870Z,22.60
2018-07-08T00:47:17.242Z,22.60
2018-07-08T00:48:19.507Z,22.60
2018-07-08T00:49:21.737Z,22.70
2018-07-08T00:50:23.978Z,22.60
2018-07-08T00:51:26.289Z,22.60
2018-07-08T00:52:28.543Z,22.60
2018-07-08T00:54:33.050Z,22.60
2018-07-08T00:55:35.309Z,22.60
2018-07-08T00:56:37.610Z,22.50
2018-07-08T00:57:39.939Z,22.50
2018-07-08T00:58:42.274Z,22.50
2018-07-08T00:59:44.534Z,22.50
2018-07-08T01:00:46.850Z,22.50
2018-07-08T01:01:49.087Z,22.50
2018-07-08T01:02:51.526Z,22.50
2018-07-08T01:03:53.815Z,22.50
2018-07-08T01:04:56.071Z,22.40
2018-07-08T01:05:58.406Z,22.50
2018-07-08T01:07:00.700Z,22.40
2018-07-08T01:09:05.994Z,22.30
2018-07-08T01:10:08.323Z,22.30
2018-07-08T01:11:10.653Z,22.30
2018-07-08T01:12:12.954Z,22.30
2018-07-08T01:13:15.236Z,22.30
2018-07-08T01:14:17.498Z,22.30
2018-07-08T01:15:19.932Z,22.30
2018-07-08T01:16:22.332Z,22.40
2018-07-08T01:17:24.711Z,22.30
2018-07-08T01:18:27.046Z,22.30
2018-07-08T01:19:30.165Z,22.40
2018-07-08T01:20:32.515Z,22.30
2018-07-08T01:21:34.835Z,22.40
2018-07-08T01:22:37.187Z,22.30
2018-07-08T01:23:39.470Z,22.30
2018-07-08T01:24:41.785Z,22.40
2018-07-08T01:25:55.447Z,22.30
2018-07-08T01:26:57.730Z,22.30
2018-07-08T01:28:00.031Z,22.30
2018-07-08T01:29:02.371Z,22.30
2018-07-08T01:30:04.769Z,22.30
2018-07-08T01:31:07.286Z,22.30
2018-07-08T01:32:09.561Z,22.30
2018-07-08T01:33:11.889Z,22.30
2018-07-08T01:34:14.170Z,22.30
2018-07-08T01:35:16.418Z,22.30
2018-07-08T01:36:18.678Z,22.30
2018-07-08T01:37:21.000Z,22.40
2018-07-08T01:38:23.811Z,22.30
2018-07-08T01:39:26.072Z,22.30
2018-07-08T01:40:28.355Z,22.30
2018-07-08T01:41:30.631Z,22.20
2018-07-08T01:43:35.197Z,22.20
2018-07-08T01:44:37.478Z,22.20
2018-07-08T01:45:39.826Z,22.20
2018-07-08T01:46:42.102Z,22.20
2018-07-08T01:47:44.391Z,22.20
2018-07-08T01:48:46.686Z,22.20
2018-07-08T01:49:49.168Z,22.30
2018-07-08T01:50:51.517Z,22.20
2018-07-08T01:51:53.942Z,22.20
2018-07-08T01:53:58.616Z,22.10
2018-07-08T01:55:00.930Z,22.10
2018-07-08T01:56:03.858Z,22.10
2018-07-08T01:57:06.106Z,22.20
2018-07-08T01:58:08.335Z,22.10
2018-07-08T01:59:10.652Z,22.20
2018-07-08T02:00:12.892Z,22.10
2018-07-08T02:01:15.242Z,22.10
2018-07-08T02:02:17.614Z,22.10
2018-07-08T02:03:19.890Z,22.10
2018-07-08T02:04:22.182Z,22.00
2018-07-08T02:05:24.462Z,22.00
2018-07-08T02:06:26.720Z,22.00
2018-07-08T02:07:29.635Z,22.00
2018-07-08T02:08:31.995Z,22.00
2018-07-08T02:09:34.660Z,22.00
2018-07-08T02:10:37.147Z,22.00
2018-07-08T02:11:40.464Z,22.00
2018-07-08T02:12:42.731Z,22.00
2018-07-08T02:14:47.542Z,22.00
2018-07-08T02:15:49.952Z,22.00
2018-07-08T02:16:52.417Z,22.00
2018-07-08T02:17:54.775Z,22.00
2018-07-08T02:18:57.046Z,22.00
2018-07-08T02:19:59.438Z,22.00
2018-07-08T02:21:01.757Z,22.10
2018-07-08T02:22:04.098Z,22.00
2018-07-08T02:23:06.444Z,22.00
2018-07-08T02:24:08.710Z,22.00
2018-07-08T02:26:13.318Z,22.10
2018-07-08T02:27:15.718Z,22.10
2018-07-08T02:28:18.107Z,22.10
2018-07-08T02:29:20.395Z,22.20
2018-07-08T02:30:22.695Z,22.10
2018-07-08T02:31:24.993Z,22.10
2018-07-08T02:32:27.324Z,22.10
2018-07-08T02:33:29.727Z,22.10
2018-07-08T02:34:32.039Z,22.00
2018-07-08T02:36:36.682Z,22.00
2018-07-08T02:37:39.032Z,22.00
2018-07-08T02:38:41.334Z,22.00
2018-07-08T02:39:44.031Z,22.00
2018-07-08T02:40:46.334Z,22.00
2018-07-08T02:41:48.651Z,22.00
2018-07-08T02:42:51.466Z,22.00
2018-07-08T02:43:53.797Z,22.00
2018-07-08T02:44:56.091Z,22.00
2018-07-08T02:45:59.045Z,22.00
2018-07-08T02:47:01.402Z,22.00
2018-07-08T02:48:04.147Z,22.10
2018-07-08T02:49:06.491Z,22.00
2018-07-08T02:50:08.806Z,22.00
2018-07-08T02:51:11.123Z,22.00
2018-07-08T02:52:13.405Z,22.00
2018-07-08T02:54:18.522Z,22.00
2018-07-08T02:55:20.884Z,22.10
2018-07-08T02:56:23.151Z,22.00
2018-07-08T02:58:27.699Z,22.00
2018-07-08T02:59:29.975Z,22.00
2018-07-08T03:00:32.222Z,22.00
2018-07-08T03:01:34.554Z,22.00
2018-07-08T03:02:36.855Z,22.00
2018-07-08T03:03:39.098Z,21.80
2018-07-08T03:04:41.475Z,21.90
2018-07-08T03:05:43.776Z,21.90
2018-07-08T03:06:46.087Z,21.90
2018-07-08T03:07:48.333Z,22.00
2018-07-08T03:08:50.631Z,21.90
2018-07-08T03:09:52.985Z,21.90
2018-07-08T03:10:55.398Z,21.90
2018-07-08T03:11:57.724Z,21.90
2018-07-08T03:13:00.099Z,21.90
2018-07-08T03:14:02.468Z,21.90
2018-07-08T03:15:04.847Z,22.00
2018-07-08T03:16:07.332Z,21.90
2018-07-08T03:17:09.619Z,21.90
2018-07-08T03:18:11.902Z,21.80
2018-07-08T03:19:14.175Z,21.80
2018-07-08T03:20:16.432Z,21.90
2018-07-08T03:21:18.710Z,21.80
2018-07-08T03:22:21.092Z,21.90
2018-07-08T03:23:23.359Z,21.80
2018-07-08T03:25:27.915Z,21.80
2018-07-08T03:26:30.143Z,21.90
2018-07-08T03:28:34.748Z,21.80
2018-07-08T03:29:37.022Z,21.80
2018-07-08T03:30:39.384Z,21.80
2018-07-08T03:31:41.691Z,21.80
2018-07-08T03:32:43.968Z,21.80
2018-07-08T03:33:46.327Z,21.80
2018-07-08T03:34:48.741Z,21.70
2018-07-08T03:37:55.975Z,21.70
2018-07-08T03:38:58.259Z,21.70
2018-07-08T03:40:00.526Z,21.70
2018-07-08T03:41:02.901Z,21.70
2018-07-08T03:43:07.747Z,21.60
2018-07-08T03:44:10.011Z,21.60
2018-07-08T03:45:12.319Z,21.60
2018-07-08T03:46:14.627Z,21.60
2018-07-08T03:47:16.906Z,21.60
2018-07-08T03:48:19.186Z,21.70
2018-07-08T03:49:21.503Z,21.70
2018-07-08T03:50:23.811Z,21.50
2018-07-08T03:51:26.155Z,21.40
2018-07-08T03:52:28.470Z,21.50
2018-07-08T03:53:30.777Z,21.50
2018-07-08T03:54:33.158Z,21.50
2018-07-08T03:55:35.426Z,21.50
2018-07-08T03:56:37.744Z,21.50
2018-07-08T03:57:40.047Z,21.40
2018-07-08T03:58:42.350Z,21.40
2018-07-08T03:59:44.619Z,21.40
2018-07-08T04:00:46.868Z,21.40
2018-07-08T04:02:51.464Z,21.40
2018-07-08T04:03:53.755Z,21.50
2018-07-08T04:04:56.047Z,21.40
2018-07-08T04:05:58.386Z,21.40
2018-07-08T04:07:00.698Z,21.40
2018-07-08T04:08:03.005Z,21.30
2018-07-08T04:09:06.132Z,21.40
2018-07-08T04:10:08.438Z,21.30
2018-07-08T04:12:13.426Z,21.30
2018-07-08T04:13:15.681Z,21.30
2018-07-08T04:14:17.988Z,21.30
2018-07-08T04:15:20.297Z,21.30
2018-07-08T04:16:22.547Z,21.30
2018-07-08T04:17:24.803Z,21.30
2018-07-08T04:18:27.075Z,21.30
2018-07-08T04:19:29.298Z,21.30
2018-07-08T04:20:31.664Z,21.40
2018-07-08T04:21:33.955Z,21.30
2018-07-08T04:22:36.287Z,21.30
2018-07-08T04:23:38.599Z,21.30
2018-07-08T04:24:40.886Z,21.30
2018-07-08T04:25:43.183Z,21.20
2018-07-08T04:26:45.448Z,21.30
2018-07-08T04:27:47.719Z,21.20
2018-07-08T04:28:50.090Z,21.30
2018-07-08T04:29:52.467Z,21.30
2018-07-08T04:30:54.751Z,21.30
2018-07-08T04:32:59.715Z,21.20
2018-07-08T04:34:02.017Z,21.40
2018-07-08T04:35:04.421Z,21.30
2018-07-08T04:36:06.730Z,21.30
2018-07-08T04:37:09.015Z,21.30
2018-07-08T04:38:11.299Z,21.30
2018-07-08T04:40:15.843Z,21.30
2018-07-08T04:41:18.079Z,21.30
2018-07-08T04:43:22.598Z,21.30
2018-07-08T04:44:24.858Z,21.30
2018-07-08T04:46:29.340Z,21.30
2018-07-08T04:47:31.594Z,21.30
2018-07-08T04:48:33.890Z,21.40
2018-07-08T04:49:36.238Z,21.30
2018-07-08T04:50:38.494Z,21.40
2018-07-08T04:51:40.738Z,21.40
2018-07-08T04:52:43.138Z,21.30
2018-07-08T04:54:47.655Z,21.30
2018-07-08T04:55:49.901Z,21.40
2018-07-08T04:56:52.239Z,21.40
2018-07-08T04:57:54.523Z,21.30
2018-07-08T04:58:56.801Z,21.40
2018-07-08T04:59:59.093Z,21.40
2018-07-08T05:01:01.451Z,21.40
2018-07-08T05:02:03.610Z,21.40
2018-07-08T05:03:05.887Z,21.40
2018-07-08T05:04:08.194Z,21.50
2018-07-08T05:06:12.710Z,21.40
2018-07-08T05:07:14.966Z,21.50
2018-07-08T05:08:17.193Z,21.40
2018-07-08T05:09:19.526Z,21.50
2018-07-08T05:10:21.840Z,21.40
2018-07-08T05:11:24.113Z,21.40
2018-07-08T05:12:26.603Z,21.50
2018-07-08T05:13:28.914Z,21.50
2018-07-08T05:14:31.170Z,21.50
2018-07-08T05:15:33.559Z,21.50
2018-07-08T05:16:35.873Z,21.50
2018-07-08T05:17:38.194Z,21.60
2018-07-08T05:18:40.446Z,21.50
2018-07-08T05:19:42.806Z,21.50
2018-07-08T05:20:45.044Z,21.50
2018-07-08T05:21:47.317Z,21.50
2018-07-08T05:22:49.554Z,21.50
2018-07-08T05:23:51.814Z,21.50
2018-07-08T05:24:54.070Z,21.50
2018-07-08T05:25:56.393Z,21.50
2018-07-08T05:26:58.687Z,21.50
2018-07-08T05:28:00.964Z,21.50
2018-07-08T05:29:03.262Z,21.50
2018-07-08T05:30:05.564Z,21.50
2018-07-08T05:31:07.877Z,21.50
2018-07-08T05:32:10.115Z,21.50
2018-07-08T05:33:12.331Z,21.50
2018-07-08T05:34:14.608Z,21.50
2018-07-08T05:35:16.899Z,21.60
2018-07-08T05:36:19.154Z,21.60
2018-07-08T05:37:21.386Z,21.60
2018-07-08T05:38:23.630Z,21.60
2018-07-08T05:39:25.858Z,21.70
2018-07-08T05:40:28.110Z,21.70
2018-07-08T05:42:32.626Z,21.80
2018-07-08T05:43:34.884Z,21.80
2018-07-08T05:45:39.390Z,21.90
2018-07-08T05:46:41.610Z,21.90
2018-07-08T05:48:52.811Z,22.00
2018-07-08T05:49:55.055Z,22.00
2018-07-08T05:50:57.282Z,22.10
2018-07-08T05:53:01.771Z,22.20
2018-07-08T05:54:04.013Z,22.20
2018-07-08T05:55:06.245Z,22.20
2018-07-08T05:56:08.509Z,22.40
2018-07-08T05:57:10.726Z,22.40
2018-07-08T05:58:12.950Z,22.40
2018-07-08T05:59:15.202Z,22.50
2018-07-08T06:00:17.454Z,22.50
2018-07-08T06:01:19.688Z,22.60
2018-07-08T06:02:21.927Z,22.70
2018-07-08T06:03:24.159Z,22.80
2018-07-08T06:04:26.438Z,22.90
2018-07-08T06:05:28.650Z,23.00
2018-07-08T06:06:30.913Z,23.00
2018-07-08T06:07:33.182Z,23.10
2018-07-08T06:08:35.437Z,23.20
2018-07-08T06:09:37.702Z,23.20
2018-07-08T06:10:39.998Z,23.20
2018-07-08T06:12:44.495Z,23.30
2018-07-08T06:13:46.714Z,23.40
2018-07-08T06:14:48.953Z,23.50
2018-07-08T06:15:51.226Z,23.50
2018-07-08T06:16:53.494Z,23.50
2018-07-08T06:17:55.690Z,23.60
2018-07-08T06:18:57.950Z,23.60
2018-07-08T06:20:00.179Z,23.60
2018-07-08T06:21:02.418Z,23.70
2018-07-08T06:23:06.934Z,23.90
2018-07-08T06:24:09.179Z,23.90
2018-07-08T06:26:13.662Z,24.10
2018-07-08T06:27:15.903Z,24.10
2018-07-08T06:28:18.131Z,24.20
2018-07-08T06:29:20.367Z,24.20
2018-07-08T06:31:24.842Z,24.20
2018-07-08T06:32:27.078Z,24.20
2018-07-08T06:33:29.325Z,24.40
2018-07-08T06:34:31.579Z,24.40
2018-07-08T06:36:36.035Z,24.50
2018-07-08T06:37:38.303Z,24.50
2018-07-08T06:38:40.534Z,24.60
2018-07-08T06:39:42.771Z,24.70
2018-07-08T06:40:45.020Z,24.60
2018-07-08T06:41:47.218Z,24.70
2018-07-08T06:42:49.490Z,24.70
2018-07-08T06:43:51.786Z,24.60
2018-07-08T06:44:54.055Z,24.60
2018-07-08T06:45:56.301Z,24.60
2018-07-08T06:46:58.555Z,24.70
2018-07-08T06:48:00.806Z,24.80
2018-07-08T06:49:03.070Z,24.80
2018-07-08T06:50:05.475Z,24.80
2018-07-08T06:51:07.730Z,24.80
2018-07-08T06:52:09.951Z,24.80
2018-07-08T06:53:12.173Z,25.00
2018-07-08T06:54:14.497Z,24.90
2018-07-08T06:55:16.759Z,24.90
2018-07-08T06:56:18.969Z,24.90
2018-07-08T06:57:21.261Z,24.90
2018-07-08T06:58:23.547Z,24.90
2018-07-08T06:59:25.770Z,24.90
2018-07-08T07:00:28.017Z,24.80
2018-07-08T07:01:30.282Z,24.80
2018-07-08T07:02:32.546Z,24.80
2018-07-08T07:03:34.829Z,24.80
2018-07-08T07:04:37.099Z,24.70
2018-07-08T07:05:39.355Z,24.70
2018-07-08T07:06:41.620Z,24.60
2018-07-08T07:07:43.923Z,24.70
2018-07-08T07:08:46.207Z,24.70
2018-07-08T07:09:48.418Z,24.70
2018-07-08T07:10:50.672Z,24.80
2018-07-08T07:11:52.909Z,24.70
2018-07-08T07:12:55.510Z,24.70
2018-07-08T07:13:57.746Z,24.70
2018-07-08T07:15:00.094Z,24.80
2018-07-08T07:16:02.342Z,24.70
2018-07-08T07:17:05.099Z,24.80
2018-07-08T07:18:07.338Z,24.80
2018-07-08T07:20:11.871Z,24.70
2018-07-08T07:21:14.114Z,24.60
2018-07-08T07:22:16.342Z,24.50
2018-07-08T07:23:18.550Z,24.50
2018-07-08T07:24:20.791Z,24.50
2018-07-08T07:25:23.381Z,24.50
2018-07-08T07:26:25.596Z,24.50
2018-07-08T07:27:27.802Z,24.40
2018-07-08T07:28:30.070Z,24.50
2018-07-08T07:29:32.266Z,24.50
2018-07-08T07:30:34.482Z,24.50
2018-07-08T07:31:36.779Z,24.50
2018-07-08T07:32:39.028Z,24.50
2018-07-08T07:33:41.277Z,24.50
2018-07-08T07:34:43.510Z,24.60
2018-07-08T07:35:45.730Z,24.60
2018-07-08T07:37:50.206Z,24.70
2018-07-08T07:38:52.446Z,24.60
2018-07-08T07:39:54.673Z,24.70
2018-07-08T07:40:56.882Z,24.70
2018-07-08T07:41:59.092Z,24.80
2018-07-08T07:43:01.295Z,24.80
2018-07-08T07:44:03.565Z,24.80
2018-07-08T07:45:06.099Z,24.70
2018-07-08T07:46:08.357Z,24.80
2018-07-08T07:47:10.571Z,24.70
2018-07-08T07:48:12.810Z,24.70
2018-07-08T07:49:15.086Z,24.70
2018-07-08T07:50:17.355Z,24.70
2018-07-08T07:51:19.526Z,24.70
2018-07-08T07:52:21.758Z,24.80
2018-07-08T07:53:23.981Z,24.70
2018-07-08T07:54:26.306Z,24.80
2018-07-08T07:55:28.532Z,24.80
2018-07-08T07:56:30.742Z,24.80
2018-07-08T07:57:32.950Z,24.80
2018-07-08T07:58:35.179Z,24.90
2018-07-08T07:59:37.478Z,25.00
2018-07-08T08:00:39.682Z,24.90
2018-07-08T08:01:41.907Z,25.00
2018-07-08T08:02:44.117Z,25.10
2018-07-08T08:03:46.370Z,25.10
2018-07-08T08:05:50.879Z,25.10
2018-07-08T08:06:53.122Z,25.20
2018-07-08T08:07:55.381Z,25.10
2018-07-08T08:08:57.606Z,25.10
2018-07-08T08:09:59.851Z,25.10
2018-07-08T08:11:02.106Z,25.10
2018-07-08T08:12:04.367Z,25.10
2018-07-08T08:13:06.681Z,25.10
2018-07-08T08:14:08.898Z,25.10
2018-07-08T08:15:11.116Z,25.10
2018-07-08T08:16:13.344Z,25.20
2018-07-08T08:17:15.602Z,25.30
2018-07-08T08:18:17.826Z,25.20
2018-07-08T08:19:20.030Z,25.30
2018-07-08T08:21:25.090Z,25.30
2018-07-08T08:22:27.316Z,25.40
2018-07-08T08:23:29.526Z,25.50
2018-07-08T08:24:31.750Z,25.40
2018-07-08T08:25:33.992Z,25.40
2018-07-08T08:26:36.211Z,25.40
2018-07-08T08:27:38.422Z,25.40
2018-07-08T08:28:40.667Z,25.40
2018-07-08T08:30:45.170Z,25.40
2018-07-08T08:31:47.419Z,25.50
2018-07-08T08:32:49.765Z,25.50
2018-07-08T08:35:05.687Z,25.50
2018-07-08T08:36:07.950Z,25.40
2018-07-08T08:38:12.470Z,25.50
2018-07-08T08:39:14.695Z,25.60
2018-07-08T08:40:17.766Z,25.60
2018-07-08T08:41:20.010Z,25.60
2018-07-08T08:42:22.294Z,25.70
2018-07-08T08:43:24.492Z,25.60
2018-07-08T08:45:29.280Z,25.70
2018-07-08T08:46:31.475Z,25.80
2018-07-08T08:47:33.754Z,25.80
2018-07-08T08:48:35.979Z,25.90
2018-07-08T08:49:38.295Z,25.90
2018-07-08T08:50:40.571Z,25.90
2018-07-08T08:51:42.777Z,26.00
2018-07-08T08:52:45.027Z,26.10
2018-07-08T08:53:47.247Z,26.00
2018-07-08T08:54:49.570Z,26.10
2018-07-08T08:56:58.627Z,26.10
2018-07-08T08:58:00.844Z,26.10
2018-07-08T08:59:03.100Z,26.10
2018-07-08T09:00:07.239Z,26.10
2018-07-08T09:01:09.481Z,26.10
2018-07-08T09:02:11.781Z,26.10
2018-07-08T09:03:14.049Z,26.10
2018-07-08T09:04:16.282Z,26.00
2018-07-08T09:08:32.069Z,26.20
2018-07-08T09:09:34.381Z,26.10
2018-07-08T09:10:36.630Z,26.10
2018-07-08T09:11:38.846Z,26.20
2018-07-08T09:12:41.074Z,26.20
2018-07-08T09:13:43.303Z,26.20
2018-07-08T09:14:45.560Z,26.30
2018-07-08T09:15:47.802Z,26.20
2018-07-08T09:16:50.678Z,26.10
2018-07-08T09:17:52.968Z,26.30
2018-07-08T09:18:55.179Z,26.40
2018-07-08T09:19:57.411Z,26.40
2018-07-08T09:20:59.641Z,26.50
2018-07-08T09:22:01.854Z,26.50
2018-07-08T09:23:04.287Z,26.50
2018-07-08T09:24:06.582Z,26.50
2018-07-08T09:25:08.799Z,26.50
2018-07-08T09:26:11.023Z,26.50
2018-07-08T09:27:13.263Z,26.50
2018-07-08T09:28:15.520Z,26.50
2018-07-08T09:29:17.791Z,26.50
2018-07-08T09:30:19.954Z,26.40
2018-07-08T09:31:22.178Z,26.40
2018-07-08T09:32:24.423Z,26.40
2018-07-08T09:34:28.914Z,26.40
2018-07-08T09:35:31.150Z,26.40
2018-07-08T09:36:33.502Z,26.30
2018-07-08T09:37:35.708Z,26.40
2018-07-08T09:38:38.020Z,26.50
2018-07-08T09:39:40.181Z,26.50
2018-07-08T09:40:42.399Z,26.50
2018-07-08T09:41:45.342Z,26.60
2018-07-08T09:42:47.603Z,26.60
2018-07-08T09:43:49.842Z,26.60
2018-07-08T09:44:52.123Z,26.60
2018-07-08T09:45:54.381Z,26.70
2018-07-08T09:46:56.603Z,26.70
2018-07-08T09:47:58.833Z,26.80
2018-07-08T09:49:01.457Z,26.80
2018-07-08T09:50:03.708Z,26.90
2018-07-08T09:51:05.971Z,26.90
2018-07-08T09:52:08.194Z,26.90
2018-07-08T09:53:10.420Z,26.90
2018-07-08T09:54:12.714Z,26.90
2018-07-08T09:55:14.923Z,26.90
2018-07-08T09:56:17.144Z,26.90
2018-07-08T09:57:19.363Z,26.90
2018-07-08T09:58:21.599Z,27.00
2018-07-08T09:59:23.798Z,27.00
2018-07-08T10:00:26.029Z,27.00
2018-07-08T10:01:28.272Z,27.00
2018-07-08T10:02:30.487Z,27.10
2018-07-08T10:03:33.318Z,27.10
2018-07-08T10:04:35.611Z,27.10
2018-07-08T10:05:37.791Z,27.20
2018-07-08T10:06:40.579Z,27.20
2018-07-08T10:07:42.778Z,27.30
2018-07-08T10:08:45.096Z,27.40
2018-07-08T10:09:47.262Z,27.40
2018-07-08T10:10:49.512Z,27.40
2018-07-08T10:11:51.719Z,27.40
2018-07-08T10:12:53.961Z,27.50
2018-07-08T10:13:56.282Z,27.50
2018-07-08T10:14:58.456Z,27.40
2018-07-08T10:16:00.691Z,27.40
2018-07-08T10:17:02.907Z,27.40
2018-07-08T10:18:05.130Z,27.40
2018-07-08T10:19:07.577Z,27.40
2018-07-08T10:20:09.931Z,27.30
2018-07-08T10:21:12.039Z,27.40
2018-07-08T10:22:14.262Z,27.40
2018-07-08T10:23:16.493Z,27.40
2018-07-08T10:24:18.722Z,27.40
2018-07-08T10:25:20.960Z,27.50
2018-07-08T10:26:23.177Z,27.50
2018-07-08T10:27:57.141Z,27.50
2018-07-08T10:28:59.446Z,27.50
2018-07-08T10:30:02.011Z,27.50
2018-07-08T10:31:09.894Z,27.50
2018-07-08T10:33:14.323Z,27.60
2018-07-08T10:34:17.035Z,27.60
2018-07-08T10:35:30.746Z,27.60
2018-07-08T10:36:33.011Z,27.50
2018-07-08T10:37:35.199Z,27.40
2018-07-08T10:38:37.427Z,27.40
2018-07-08T10:39:39.639Z,27.40
2018-07-08T10:40:41.904Z,27.50
2018-07-08T10:41:44.122Z,27.50
2018-07-08T10:42:46.342Z,27.50
2018-07-08T10:43:48.567Z,27.60
2018-07-08T10:44:50.826Z,27.60
2018-07-08T10:45:53.215Z,27.60
2018-07-08T10:46:55.458Z,27.70
2018-07-08T10:47:57.751Z,27.70
2018-07-08T10:49:00.028Z,27.70
2018-07-08T10:50:02.349Z,27.80
2018-07-08T10:51:04.514Z,27.80
2018-07-08T10:52:06.943Z,27.70
2018-07-08T10:53:09.189Z,27.60
2018-07-08T10:54:11.386Z,27.60
2018-07-08T10:55:13.627Z,27.60
2018-07-08T10:56:15.843Z,27.60
2018-07-08T10:57:18.035Z,27.70
2018-07-08T10:58:20.259Z,27.60
2018-07-08T10:59:22.467Z,27.70
2018-07-08T11:00:24.674Z,27.70
2018-07-08T11:01:27.003Z,27.80
2018-07-08T11:03:31.506Z,27.90
2018-07-08T11:05:45.706Z,27.90
2018-07-08T11:06:47.922Z,28.00
2018-07-08T11:07:50.142Z,28.10
2018-07-08T11:08:52.429Z,28.10
2018-07-08T11:09:54.641Z,28.10
2018-07-08T11:10:56.861Z,28.20
2018-07-08T11:11:59.070Z,28.10
2018-07-08T11:13:01.272Z,28.20
2018-07-08T11:14:03.514Z,28.20
2018-07-08T11:15:05.718Z,28.30
2018-07-08T11:17:10.167Z,28.20
2018-07-08T11:18:12.383Z,28.30
2018-07-08T11:19:14.605Z,28.30
2018-07-08T11:20:16.989Z,28.20
2018-07-08T11:21:19.188Z,28.10
2018-07-08T11:22:21.363Z,28.10
2018-07-08T11:23:23.573Z,28.00
2018-07-08T11:24:25.756Z,28.00
2018-07-08T11:26:30.200Z,28.10
2018-07-08T11:27:32.377Z,28.10
2018-07-08T11:28:34.604Z,28.20
2018-07-08T11:30:39.135Z,28.30
2018-07-08T11:31:41.363Z,28.30
2018-07-08T11:32:43.587Z,28.30
2018-07-08T11:33:45.846Z,28.30
2018-07-08T11:34:48.042Z,28.30
2018-07-08T11:35:50.283Z,28.20
2018-07-08T11:36:52.530Z,28.20
2018-07-08T11:37:54.772Z,28.30
2018-07-08T11:38:56.998Z,28.30
2018-07-08T11:39:59.198Z,28.40
2018-07-08T11:41:01.438Z,28.30
2018-07-08T11:42:03.681Z,28.30
2018-07-08T11:43:05.883Z,28.40
2018-07-08T11:44:08.114Z,28.40
2018-07-08T11:45:10.313Z,28.60
2018-07-08T11:46:12.507Z,28.60
2018-07-08T11:48:16.922Z,28.70
2018-07-08T11:49:19.126Z,28.80
2018-07-08T11:50:21.339Z,28.80
2018-07-08T11:51:26.360Z,28.90
2018-07-08T11:52:28.561Z,28.90
2018-07-08T11:53:30.782Z,29.10
2018-07-08T11:54:32.986Z,29.20
2018-07-08T11:55:35.179Z,29.10
2018-07-08T11:56:37.395Z,29.10
2018-07-08T11:57:39.665Z,28.90
2018-07-08T11:58:41.875Z,28.70
2018-07-08T11:59:44.065Z,28.80
2018-07-08T12:00:46.273Z,28.90
2018-07-08T12:01:48.539Z,28.90
2018-07-08T12:02:50.690Z,29.00
2018-07-08T12:04:55.120Z,29.00
2018-07-08T12:05:57.372Z,29.00
2018-07-08T12:06:59.562Z,29.00
2018-07-08T12:08:01.769Z,29.00
2018-07-08T12:09:04.711Z,29.10
2018-07-08T12:10:06.926Z,29.00
2018-07-08T12:12:11.451Z,29.00
2018-07-08T12:13:13.637Z,29.00
2018-07-08T12:14:15.850Z,29.00
2018-07-08T12:15:18.059Z,29.10
2018-07-08T12:16:20.384Z,29.20
2018-07-08T12:17:22.674Z,29.20
2018-07-08T12:18:24.894Z,29.20
2018-07-08T12:20:29.327Z,29.30
2018-07-08T12:21:31.677Z,29.20
2018-07-08T12:23:38.975Z,29.10
2018-07-08T12:24:41.326Z,29.00
2018-07-08T12:25:43.556Z,28.80
2018-07-08T12:26:45.761Z,28.80
2018-07-08T12:27:47.975Z,28.70
2018-07-08T12:28:50.205Z,28.70
2018-07-08T12:29:52.434Z,28.80
2018-07-08T12:30:54.614Z,28.80
2018-07-08T12:31:56.841Z,28.80
2018-07-08T12:32:59.082Z,28.70
2018-07-08T12:34:01.335Z,28.70
2018-07-08T12:35:03.582Z,28.70
2018-07-08T12:36:06.518Z,28.70
2018-07-08T12:37:08.717Z,28.70
2018-07-08T12:38:10.893Z,28.90
2018-07-08T12:39:13.598Z,29.00
2018-07-08T12:40:15.824Z,29.10
2018-07-08T12:41:17.998Z,29.20
2018-07-08T12:42:20.173Z,29.30
2018-07-08T12:43:22.382Z,29.40
2018-07-08T12:44:24.638Z,29.50
2018-07-08T12:46:29.031Z,29.50
2018-07-08T12:47:31.227Z,29.50
2018-07-08T12:48:33.422Z,29.40
2018-07-08T12:49:35.634Z,29.40
2018-07-08T12:50:37.818Z,29.30
2018-07-08T12:52:42.226Z,29.30
2018-07-08T12:53:44.438Z,29.40
2018-07-08T12:54:46.716Z,29.50
2018-07-08T12:55:48.951Z,29.60
2018-07-08T12:56:51.143Z,29.70
2018-07-08T12:57:53.362Z,29.80
2018-07-08T12:58:55.981Z,29.90
2018-07-08T12:59:58.171Z,29.90
2018-07-08T13:01:00.409Z,29.90
2018-07-08T13:02:02.618Z,29.80
2018-07-08T13:03:04.862Z,29.70
2018-07-08T13:04:07.081Z,29.60
2018-07-08T13:05:09.303Z,29.60
2018-07-08T13:06:11.596Z,29.60
2018-07-08T13:07:13.733Z,29.70
2018-07-08T13:08:15.926Z,29.80
2018-07-08T13:09:18.119Z,29.90
2018-07-08T13:10:20.322Z,30.20
2018-07-08T13:11:22.703Z,30.20
2018-07-08T13:12:24.940Z,30.40
2018-07-08T13:13:27.150Z,30.40
2018-07-08T13:14:29.361Z,30.50
2018-07-08T13:15:31.581Z,30.50
2018-07-08T13:16:33.799Z,30.60
2018-07-08T13:18:38.448Z,30.80
2018-07-08T13:19:40.671Z,30.80
2018-07-08T13:20:42.882Z,30.90
2018-07-08T13:21:45.091Z,31.00
2018-07-08T13:22:47.318Z,31.10
2018-07-08T13:24:51.870Z,31.30
2018-07-08T13:25:54.101Z,31.40
2018-07-08T13:26:56.343Z,31.40
2018-07-08T13:27:58.590Z,31.40
2018-07-08T13:29:00.807Z,31.50
2018-07-08T13:30:03.235Z,31.50
2018-07-08T13:31:05.491Z,31.40
2018-07-08T13:32:07.715Z,31.20
2018-07-08T13:33:10.089Z,31.00
2018-07-08T13:34:12.385Z,30.90
2018-07-08T13:35:14.619Z,30.80
2018-07-08T13:36:16.830Z,30.80
2018-07-08T13:37:19.012Z,30.80
2018-07-08T13:38:21.251Z,30.80
2018-07-08T13:39:23.440Z,30.80
2018-07-08T13:40:25.618Z,30.80
2018-07-08T13:41:27.905Z,30.90
2018-07-08T13:42:30.100Z,30.90
2018-07-08T13:44:34.576Z,31.10
2018-07-08T13:45:36.952Z,31.10
2018-07-08T13:46:39.158Z,31.00
2018-07-08T13:47:41.358Z,30.90
2018-07-08T13:48:43.559Z,30.90
2018-07-08T13:49:45.747Z,31.00
2018-07-08T13:50:47.945Z,31.00
2018-07-08T13:51:50.175Z,31.20
2018-07-08T13:52:52.374Z,31.20
2018-07-08T13:53:54.588Z,31.20
2018-07-08T13:54:56.790Z,31.30
2018-07-08T13:55:59.002Z,31.30
2018-07-08T13:57:01.217Z,31.20
2018-07-08T13:58:03.449Z,31.10
2018-07-08T13:59:05.680Z,31.20
2018-07-08T14:00:07.922Z,31.20
2018-07-08T14:01:10.131Z,31.20
2018-07-08T14:02:12.316Z,31.20
2018-07-08T14:03:14.560Z,31.20
2018-07-08T14:04:16.757Z,31.20
2018-07-08T14:05:18.968Z,31.10
2018-07-08T14:06:21.178Z,31.10
2018-07-08T14:07:23.389Z,31.00
2018-07-08T14:08:25.645Z,30.80
2018-07-08T14:09:27.962Z,30.80
2018-07-08T14:10:30.146Z,30.70
2018-07-08T14:11:32.365Z,30.60
2018-07-08T14:12:34.601Z,30.60
2018-07-08T14:14:39.088Z,30.40
2018-07-08T14:15:41.294Z,30.40
2018-07-08T14:16:43.490Z,30.50
2018-07-08T14:17:45.695Z,30.50
2018-07-08T14:18:48.011Z,30.50
2018-07-08T14:19:50.263Z,30.50
2018-07-08T14:20:52.503Z,30.50
2018-07-08T14:21:54.713Z,30.50
2018-07-08T14:22:56.890Z,30.40
2018-07-08T14:23:59.085Z,30.40
2018-07-08T14:25:01.329Z,30.40
2018-07-08T14:26:08.495Z,30.40
2018-07-08T14:27:11.579Z,30.40
2018-07-08T14:28:15.745Z,30.40
2018-07-08T14:29:19.980Z,30.40